Time,TemperatureF,DewpointF,PressureIn,WindDirection,WindDirectionDegrees,WindSpeedMPH,WindSpeedGustMPH,Humidity,HourlyPrecipIn,Conditions,Clouds,dailyrainin,SolarRadiationWatts/m^2,SoftwareType,DateUTC
2013-04-17 00:22:00,25.0,11.0,-100.00,NW,317,2.0,9.0,55,0.00,,,0.01,0.000000,,2013-04-17 06:22:00,
2013-04-17 00:32:00,25.0,11.0,-100.00,NW,317,2.0,9.0,55,0.00,,,0.01,0.000000,,2013-04-17 06:32:00,
2013-04-17 00:42:00,25.0,11.0,-100.00,NW,317,2.0,9.0,55,0.00,,,0.01,0.000000,,2013-04-17 06:42:00,
2013-04-17 00:52:00,25.0,11.0,-100.00,NW,317,2.0,9.0,55,0.00,,,0.01,0.000000,,2013-04-17 06:52:00,
2013-04-17 01:22:00,24.0,11.0,-100.00,NW,308,1.0,11.0,56,0.00,,,0.01,0.000000,,2013-04-17 07:22:00,
2013-04-17 01:32:00,24.0,11.0,-100.00,NW,308,1.0,11.0,56,0.00,,,0.01,0.000000,,2013-04-17 07:32:00,
2013-04-17 01:42:00,24.0,11.0,-100.00,NW,308,1.0,11.0,56,0.00,,,0.01,0.000000,,2013-04-17 07:42:00,
2013-04-17 01:52:00,24.0,11.0,-100.00,NW,308,1.0,11.0,56,0.00,,,0.01,0.000000,,2013-04-17 07:52:00,
2013-04-17 02:22:00,24.0,11.0,-100.00,NW,304,2.0,7.0,56,0.00,,,0.01,0.000000,,2013-04-17 08:22:00,
2013-04-17 02:32:00,24.0,11.0,-100.00,NW,304,2.0,7.0,56,0.00,,,0.01,0.000000,,2013-04-17 08:32:00,
2013-04-17 02:42:00,24.0,11.0,-100.00,NW,304,2.0,7.0,56,0.00,,,0.01,0.000000,,2013-04-17 08:42:00,
2013-04-17 02:52:00,24.0,11.0,-100.00,NW,304,2.0,7.0,56,0.00,,,0.01,0.000000,,2013-04-17 08:52:00,
2013-04-17 03:22:00,23.0,9.0,-100.00,North,8,1.0,7.0,54,0.00,,,0.01,0.000000,,2013-04-17 09:22:00,
2013-04-17 03:33:00,23.0,9.0,-100.00,North,8,1.0,7.0,54,0.00,,,0.01,0.000000,,2013-04-17 09:33:00,
2013-04-17 03:42:00,23.0,9.0,-100.00,North,8,1.0,7.0,54,0.00,,,0.01,0.000000,,2013-04-17 09:42:00,
2013-04-17 03:52:00,23.0,9.0,-100.00,North,8,1.0,7.0,54,0.00,,,0.01,0.000000,,2013-04-17 09:52:00,
2013-04-17 04:23:00,22.0,9.0,-100.00,NNW,332,0.0,5.0,57,0.00,,,0.01,0.000000,,2013-04-17 10:23:00,
2013-04-17 04:32:00,22.0,9.0,-100.00,NNW,332,0.0,5.0,57,0.00,,,0.01,0.000000,,2013-04-17 10:32:00,
2013-04-17 04:42:00,22.0,9.0,-100.00,NNW,332,0.0,5.0,57,0.00,,,0.01,0.000000,,2013-04-17 10:42:00,
2013-04-17 04:52:00,22.0,9.0,-100.00,NNW,332,0.0,5.0,57,0.00,,,0.01,0.000000,,2013-04-17 10:52:00,
2013-04-17 05:22:00,22.0,9.0,-100.00,NNE,29,1.0,6.0,56,0.00,,,0.01,0.000000,,2013-04-17 11:22:00,
2013-04-17 05:32:00,22.0,9.0,-100.00,NNE,29,1.0,6.0,56,0.00,,,0.01,0.000000,,2013-04-17 11:32:00,
2013-04-17 05:42:00,22.0,9.0,-100.00,NNE,29,1.0,6.0,56,0.00,,,0.01,0.000000,,2013-04-17 11:42:00,
2013-04-17 05:52:00,22.0,9.0,-100.00,NNE,29,1.0,6.0,56,0.00,,,0.01,0.000000,,2013-04-17 11:52:00,
2013-04-17 06:22:00,21.0,9.0,-100.00,NE,50,0.0,6.0,58,0.00,,,0.01,0.000000,,2013-04-17 12:22:00,
2013-04-17 06:32:00,21.0,9.0,-100.00,NE,50,0.0,6.0,58,0.00,,,0.01,0.000000,,2013-04-17 12:32:00,
2013-04-17 06:42:00,21.0,9.0,-100.00,NE,50,0.0,6.0,58,0.00,,,0.01,0.000000,,2013-04-17 12:42:00,
2013-04-17 06:52:00,21.0,9.0,-100.00,NE,50,0.0,6.0,58,0.00,,,0.01,0.000000,,2013-04-17 12:52:00,
2013-04-17 07:22:00,20.0,9.0,-100.00,WNW,296,1.0,6.0,62,0.00,,,0.01,0.000000,,2013-04-17 13:22:00,
2013-04-17 07:32:00,20.0,9.0,-100.00,WNW,296,1.0,6.0,62,0.00,,,0.01,0.000000,,2013-04-17 13:32:00,
2013-04-17 07:42:00,20.0,9.0,-100.00,WNW,296,1.0,6.0,62,0.00,,,0.01,0.000000,,2013-04-17 13:42:00,
2013-04-17 07:52:00,20.0,9.0,-100.00,WNW,296,1.0,6.0,62,0.00,,,0.01,0.000000,,2013-04-17 13:52:00,
2013-04-17 08:22:00,19.0,10.0,-100.00,East,94,0.0,3.0,66,0.00,,,0.01,13.000000,,2013-04-17 14:22:00,
2013-04-17 08:32:00,19.0,10.0,-100.00,East,94,0.0,3.0,66,0.00,,,0.01,13.000000,,2013-04-17 14:32:00,
2013-04-17 08:42:00,19.0,10.0,-100.00,East,94,0.0,3.0,66,0.00,,,0.01,13.000000,,2013-04-17 14:42:00,
2013-04-17 08:52:00,19.0,10.0,-100.00,East,94,0.0,3.0,66,0.00,,,0.01,13.000000,,2013-04-17 14:52:00,
2013-04-17 09:22:00,22.0,12.0,-100.00,West,268,1.0,4.0,65,0.00,,,0.01,28.000000,,2013-04-17 15:22:00,
2013-04-17 09:33:00,22.0,12.0,-100.00,West,268,1.0,4.0,65,0.00,,,0.01,28.000000,,2013-04-17 15:33:00,
2013-04-17 09:42:00,22.0,12.0,-100.00,West,268,1.0,4.0,65,0.00,,,0.01,28.000000,,2013-04-17 15:42:00,
2013-04-17 09:52:00,22.0,12.0,-100.00,West,268,1.0,4.0,65,0.00,,,0.01,28.000000,,2013-04-17 15:52:00,
2013-04-17 10:22:00,27.0,13.0,-100.00,West,280,2.0,5.0,54,0.00,,,0.01,77.000000,,2013-04-17 16:22:00,
2013-04-17 10:32:00,27.0,13.0,-100.00,West,280,2.0,5.0,54,0.00,,,0.01,77.000000,,2013-04-17 16:32:00,
2013-04-17 10:42:00,27.0,13.0,-100.00,West,280,2.0,5.0,54,0.00,,,0.01,77.000000,,2013-04-17 16:42:00,
2013-04-17 10:52:00,27.0,13.0,-100.00,West,280,2.0,5.0,54,0.00,,,0.01,77.000000,,2013-04-17 16:52:00,
2013-04-17 11:22:00,31.0,12.0,-100.00,WNW,285,4.0,10.0,45,0.00,,,-99.99,567.000000,,2013-04-17 17:22:00,
2013-04-17 11:33:00,31.0,12.0,-100.00,WNW,285,4.0,10.0,45,0.00,,,-99.99,567.000000,,2013-04-17 17:33:00,
2013-04-17 11:42:00,31.0,12.0,-100.00,WNW,285,4.0,10.0,45,0.00,,,-99.99,567.000000,,2013-04-17 17:42:00,
2013-04-17 11:51:00,31.0,12.0,-100.00,WNW,285,4.0,10.0,45,0.00,,,-99.99,567.000000,,2013-04-17 17:51:00,
2013-04-17 12:22:00,34.0,6.0,-100.00,NW,325,4.0,13.0,30,0.00,,,0.00,736.000000,,2013-04-17 18:22:00,
2013-04-17 12:32:00,34.0,6.0,-100.00,NW,325,4.0,13.0,30,0.00,,,0.00,736.000000,,2013-04-17 18:32:00,
2013-04-17 12:42:00,34.0,6.0,-100.00,NW,325,4.0,13.0,30,0.00,,,0.00,736.000000,,2013-04-17 18:42:00,
2013-04-17 12:52:00,34.0,6.0,-100.00,NW,325,4.0,13.0,30,0.00,,,0.00,736.000000,,2013-04-17 18:52:00,
2013-04-17 13:22:00,37.0,8.0,-100.00,NW,318,4.0,15.0,30,0.00,,,0.00,853.000000,,2013-04-17 19:22:00,
2013-04-17 13:32:00,37.0,8.0,-100.00,NW,318,4.0,15.0,30,0.00,,,0.00,853.000000,,2013-04-17 19:32:00,
2013-04-17 13:42:00,37.0,8.0,-100.00,NW,318,4.0,15.0,30,0.00,,,0.00,853.000000,,2013-04-17 19:42:00,
2013-04-17 13:52:00,37.0,8.0,-100.00,NW,318,4.0,15.0,30,0.00,,,0.00,853.000000,,2013-04-17 19:52:00,
2013-04-17 14:22:00,38.0,7.0,-100.00,NW,326,4.0,13.0,27,0.00,,,-99.99,883.000000,,2013-04-17 20:22:00,
2013-04-17 14:32:00,38.0,7.0,-100.00,NW,326,4.0,13.0,27,0.00,,,-99.99,883.000000,,2013-04-17 20:32:00,
2013-04-17 14:42:00,38.0,7.0,-100.00,NW,326,4.0,13.0,27,0.00,,,-99.99,883.000000,,2013-04-17 20:42:00,
2013-04-17 14:52:00,38.0,7.0,-100.00,NW,326,4.0,13.0,27,0.00,,,-99.99,883.000000,,2013-04-17 20:52:00,
2013-04-17 15:22:00,40.0,10.0,-100.00,NW,316,4.0,16.0,28,0.00,,,0.00,901.000000,,2013-04-17 21:22:00,
2013-04-17 15:32:00,40.0,10.0,-100.00,NW,316,4.0,16.0,28,0.00,,,0.00,901.000000,,2013-04-17 21:32:00,
2013-04-17 15:42:00,40.0,10.0,-100.00,NW,316,4.0,16.0,28,0.00,,,0.00,901.000000,,2013-04-17 21:42:00,
2013-04-17 15:53:00,40.0,10.0,-100.00,NW,316,4.0,16.0,28,0.00,,,0.00,901.000000,,2013-04-17 21:53:00,
2013-04-17 16:22:00,40.0,9.0,-100.00,West,266,3.0,14.0,27,0.00,,,-99.99,866.000000,,2013-04-17 22:22:00,
2013-04-17 16:33:00,40.0,9.0,-100.00,West,266,3.0,14.0,27,0.00,,,-99.99,866.000000,,2013-04-17 22:33:00,
2013-04-17 16:42:00,40.0,9.0,-100.00,West,266,3.0,14.0,27,0.00,,,-99.99,866.000000,,2013-04-17 22:42:00,
2013-04-17 16:52:00,40.0,9.0,-100.00,West,266,3.0,14.0,27,0.00,,,-99.99,866.000000,,2013-04-17 22:52:00,
2013-04-17 17:22:00,40.0,7.0,-100.00,NNE,22,3.0,16.0,25,0.00,,,0.00,689.000000,,2013-04-17 23:22:00,
2013-04-17 17:32:00,40.0,7.0,-100.00,NNE,22,3.0,16.0,25,0.00,,,0.00,689.000000,,2013-04-17 23:32:00,
2013-04-17 17:42:00,40.0,7.0,-100.00,NNE,22,3.0,16.0,25,0.00,,,0.00,689.000000,,2013-04-17 23:42:00,
2013-04-17 17:52:00,40.0,7.0,-100.00,NNE,22,3.0,16.0,25,0.00,,,0.00,689.000000,,2013-04-17 23:52:00,
2013-04-17 18:22:00,39.0,5.0,-100.00,WNW,295,8.0,16.0,24,0.00,,,0.00,533.000000,,2013-04-18 00:22:00,
2013-04-17 18:32:00,39.0,5.0,-100.00,WNW,295,8.0,16.0,24,0.00,,,0.00,533.000000,,2013-04-18 00:32:00,
2013-04-17 18:42:00,39.0,5.0,-100.00,WNW,295,8.0,16.0,24,0.00,,,0.00,533.000000,,2013-04-18 00:42:00,
2013-04-17 18:52:00,39.0,5.0,-100.00,WNW,295,8.0,16.0,24,0.00,,,0.00,533.000000,,2013-04-18 00:52:00,
2013-04-17 19:22:00,38.0,4.0,-100.00,WNW,300,4.0,11.0,24,0.00,,,0.00,136.000000,,2013-04-18 01:22:00,
2013-04-17 19:32:00,38.0,4.0,-100.00,WNW,300,4.0,11.0,24,0.00,,,0.00,136.000000,,2013-04-18 01:32:00,
2013-04-17 19:42:00,38.0,4.0,-100.00,WNW,300,4.0,11.0,24,0.00,,,0.00,136.000000,,2013-04-18 01:42:00,
2013-04-17 19:52:00,38.0,4.0,-100.00,WNW,300,4.0,11.0,24,0.00,,,0.00,136.000000,,2013-04-18 01:52:00,
2013-04-17 20:22:00,35.0,3.0,-100.00,NNW,328,2.0,12.0,25,0.00,,,0.00,56.000000,,2013-04-18 02:22:00,
2013-04-17 20:32:00,35.0,3.0,-100.00,NNW,328,2.0,12.0,25,0.00,,,0.00,56.000000,,2013-04-18 02:32:00,
2013-04-17 20:42:00,35.0,3.0,-100.00,NNW,328,2.0,12.0,25,0.00,,,0.00,56.000000,,2013-04-18 02:42:00,
2013-04-17 20:51:00,35.0,3.0,-100.00,NNW,328,2.0,12.0,25,0.00,,,0.00,56.000000,,2013-04-18 02:51:00,
2013-04-17 21:22:00,31.0,3.0,-100.00,WNW,296,1.0,7.0,30,0.00,,,0.00,9.000000,,2013-04-18 03:22:00,
2013-04-17 21:33:00,31.0,3.0,-100.00,WNW,296,1.0,7.0,30,0.00,,,0.00,9.000000,,2013-04-18 03:33:00,
2013-04-17 21:43:00,31.0,3.0,-100.00,WNW,296,1.0,7.0,30,0.00,,,0.00,9.000000,,2013-04-18 03:43:00,
2013-04-17 21:53:00,31.0,3.0,-100.00,WNW,296,1.0,7.0,30,0.00,,,0.00,9.000000,,2013-04-18 03:53:00,
2013-04-17 22:23:00,28.0,5.0,-100.00,SE,124,0.0,6.0,37,0.00,,,0.00,0.000000,,2013-04-18 04:23:00,
2013-04-17 22:33:00,28.0,5.0,-100.00,SE,124,0.0,6.0,37,0.00,,,0.00,0.000000,,2013-04-18 04:33:00,
2013-04-17 22:43:00,28.0,5.0,-100.00,SE,124,0.0,6.0,37,0.00,,,0.00,0.000000,,2013-04-18 04:43:00,
2013-04-17 22:52:00,28.0,5.0,-100.00,SE,124,0.0,6.0,37,0.00,,,0.00,0.000000,,2013-04-18 04:52:00,
2013-04-17 23:22:00,29.0,7.0,-100.00,North,1,0.0,2.0,39,0.00,,,0.00,0.000000,,2013-04-18 05:22:00,
2013-04-17 23:32:00,29.0,7.0,-100.00,North,1,0.0,2.0,39,0.00,,,0.00,0.000000,,2013-04-18 05:32:00,
2013-04-17 23:42:00,29.0,7.0,-100.00,North,1,0.0,2.0,39,0.00,,,0.00,0.000000,,2013-04-18 05:42:00,
2013-04-17 23:52:00,29.0,7.0,-100.00,North,1,0.0,2.0,39,0.00,,,0.00,0.000000,,2013-04-18 05:52:00,